createdAt,value
2019-01-12T00:01:52.098Z,91
2019-01-12T00:07:18.660Z,91
2019-01-12T00:12:46.185Z,91
2019-01-12T00:18:12.865Z,91
2019-01-12T00:23:40.250Z,91
2019-01-12T00:29:06.797Z,91
2019-01-12T00:34:33.270Z,91
2019-01-12T00:40:00.822Z,91
2019-01-12T00:45:27.396Z,91
2019-01-12T00:50:53.939Z,91
2019-01-12T00:56:21.494Z,91
2019-01-12T01:01:49.141Z,91
2019-01-12T01:07:15.616Z,91
2019-01-12T01:12:43.223Z,91
2019-01-12T01:18:10.754Z,91
2019-01-12T01:23:38.290Z,91
2019-01-12T01:29:05.894Z,90
2019-01-12T01:34:32.482Z,90
2019-01-12T01:39:59.027Z,90
2019-01-12T01:45:26.566Z,90
2019-01-12T01:50:54.132Z,90
2019-01-12T01:56:21.701Z,90
2019-01-12T02:01:49.262Z,90
2019-01-12T02:07:16.849Z,90
2019-01-12T02:12:44.396Z,90
2019-01-12T02:18:12.011Z,90
2019-01-12T02:23:38.618Z,90
2019-01-12T02:29:05.166Z,90
2019-01-12T02:34:32.735Z,90
2019-01-12T02:39:59.276Z,90
2019-01-12T02:45:26.833Z,90
2019-01-12T02:50:54.434Z,90
2019-01-12T02:56:21.992Z,90
2019-01-12T03:01:49.564Z,90
2019-01-12T03:12:44.743Z,90
2019-01-12T03:18:11.309Z,90
2019-01-12T03:23:38.847Z,90
2019-01-12T03:29:06.447Z,90
2019-01-12T03:34:33.013Z,91
2019-01-12T03:39:59.623Z,91
2019-01-12T03:45:27.206Z,91
2019-01-12T03:50:53.766Z,91
2019-01-12T03:56:21.371Z,91
2019-01-12T04:01:48.982Z,91
2019-01-12T04:07:16.555Z,91
2019-01-12T04:12:44.200Z,91
2019-01-12T04:18:11.741Z,91
2019-01-12T04:23:38.299Z,91
2019-01-12T04:29:04.885Z,91
2019-01-12T04:34:32.475Z,91
2019-01-12T04:39:59.052Z,91
2019-01-12T04:45:25.647Z,92
2019-01-12T04:50:53.288Z,92
2019-01-12T04:56:19.860Z,92
2019-01-12T05:01:46.473Z,92
2019-01-12T05:07:14.025Z,92
2019-01-12T05:12:40.578Z,92
2019-01-12T05:18:07.156Z,92
2019-01-12T05:23:33.752Z,92
2019-01-12T05:29:01.370Z,92
2019-01-12T05:34:27.897Z,92
2019-01-12T05:39:54.491Z,92
2019-01-12T05:45:21.079Z,92
2019-01-12T05:50:47.674Z,92
2019-01-12T05:56:14.273Z,92
2019-01-12T06:01:40.939Z,92
2019-01-12T06:07:08.455Z,92
2019-01-12T06:12:36.073Z,92
2019-01-12T06:18:03.651Z,93
2019-01-12T06:23:30.386Z,93
2019-01-12T06:28:56.888Z,93
2019-01-12T06:34:24.481Z,93
2019-01-12T06:39:51.062Z,93
2019-01-12T06:45:17.755Z,93
2019-01-12T06:50:44.219Z,93
2019-01-12T06:56:11.797Z,93
2019-01-12T07:01:39.426Z,93
2019-01-12T07:07:06.040Z,93
2019-01-12T07:12:32.598Z,93
2019-01-12T07:18:00.577Z,93
2019-01-12T07:23:26.749Z,94
2019-01-12T07:28:53.794Z,94
2019-01-12T07:34:19.954Z,94
2019-01-12T07:39:46.506Z,94
2019-01-12T07:45:19.183Z,94
2019-01-12T07:50:40.654Z,94
2019-01-12T07:56:07.205Z,94
2019-01-12T08:01:33.878Z,94
2019-01-12T08:07:06.461Z,94
2019-01-12T08:12:28.907Z,94
2019-01-12T08:17:55.504Z,94
2019-01-12T08:23:22.080Z,94
2019-01-12T08:28:49.084Z,94
2019-01-12T08:34:15.242Z,94
2019-01-12T08:39:41.770Z,94
2019-01-12T08:45:08.349Z,94
2019-01-12T08:50:35.914Z,94
2019-01-12T08:56:02.625Z,94
2019-01-12T09:01:29.107Z,94
2019-01-12T09:06:55.635Z,94
2019-01-12T09:12:22.220Z,94
2019-01-12T09:17:49.812Z,94
2019-01-12T09:23:21.448Z,94
2019-01-12T09:28:43.961Z,94
2019-01-12T09:34:11.510Z,94
2019-01-12T09:39:38.099Z,94
2019-01-12T09:45:05.695Z,94
2019-01-12T09:50:32.324Z,94
2019-01-12T09:55:59.846Z,94
2019-01-12T10:01:26.450Z,94
2019-01-12T10:06:53.017Z,94
2019-01-12T10:12:19.616Z,94
2019-01-12T10:17:47.242Z,95
2019-01-12T10:23:13.815Z,95
2019-01-12T10:28:41.735Z,95
2019-01-12T10:34:09.111Z,95
2019-01-12T10:39:41.658Z,95
2019-01-12T10:45:04.621Z,95
2019-01-12T11:44:59.174Z,95
2019-01-12T11:50:26.759Z,96
2019-01-12T11:55:54.403Z,96
2019-01-12T12:01:22.106Z,96
2019-01-12T12:06:48.705Z,96
2019-01-12T12:12:15.323Z,96
2019-01-12T12:17:41.970Z,96
2019-01-12T12:23:08.619Z,96
2019-01-12T12:28:35.262Z,96
2019-01-12T12:34:01.991Z,96
2019-01-12T12:39:29.550Z,96
2019-01-12T12:44:57.202Z,96
2019-01-12T12:50:23.933Z,96
2019-01-12T12:55:52.633Z,96
2019-01-12T13:01:17.166Z,96
2019-01-12T13:06:44.806Z,96
2019-01-12T13:12:12.417Z,96
2019-01-12T13:17:39.094Z,96
2019-01-12T13:23:10.744Z,96
2019-01-12T13:28:33.381Z,96
2019-01-12T13:34:00.570Z,96
2019-01-12T13:39:31.943Z,96
2019-01-12T13:44:55.279Z,96
2019-01-12T13:50:22.932Z,96
2019-01-12T13:55:49.563Z,96
2019-01-12T14:01:16.214Z,96
2019-01-12T14:06:42.853Z,96
2019-01-12T14:12:15.527Z,96
2019-01-12T14:17:37.087Z,96
2019-01-12T14:23:03.691Z,96
2019-01-12T14:28:33.770Z,96
2019-01-12T14:33:56.952Z,96
2019-01-12T14:39:24.608Z,96
2019-01-12T14:44:51.281Z,96
2019-01-12T14:50:18.876Z,96
2019-01-12T14:55:46.644Z,96
2019-01-12T15:01:13.025Z,96
2019-01-12T15:06:39.611Z,97
2019-01-12T15:12:07.221Z,97
2019-01-12T15:17:33.810Z,96
2019-01-12T15:23:00.431Z,96
2019-01-12T15:28:27.995Z,96
2019-01-12T15:33:55.616Z,96
2019-01-12T15:39:22.176Z,96
2019-01-12T15:44:48.866Z,96
2019-01-12T15:50:16.545Z,96
2019-01-12T15:55:42.979Z,96
2019-01-12T16:01:09.641Z,96
2019-01-12T16:06:36.203Z,96
2019-01-12T16:12:03.784Z,96
2019-01-12T16:17:31.491Z,96
2019-01-12T16:22:58.044Z,96
2019-01-12T16:28:26.540Z,96
2019-01-12T16:33:51.155Z,96
2019-01-12T16:39:17.740Z,96
2019-01-12T16:44:45.305Z,96
2019-01-12T16:50:11.970Z,96
2019-01-12T17:33:50.627Z,97
2019-01-12T17:39:18.313Z,97
2019-01-12T17:44:44.772Z,97
2019-01-12T17:50:11.410Z,97
2019-01-12T17:55:38.928Z,97
2019-01-12T18:01:06.524Z,97
2019-01-12T18:06:33.131Z,97
2019-01-12T18:11:59.662Z,97
2019-01-12T18:17:27.268Z,97
2019-01-12T18:22:54.837Z,97
2019-01-12T18:28:21.400Z,97
2019-01-12T18:33:47.917Z,97
2019-01-12T18:39:14.476Z,97
2019-01-12T18:44:41.026Z,97
2019-01-12T18:50:07.677Z,97
2019-01-12T18:55:35.187Z,97
2019-01-12T19:01:02.737Z,97
2019-01-12T19:06:29.290Z,97
2019-01-12T19:11:57.824Z,97
2019-01-12T19:17:22.403Z,97
2019-01-12T19:28:16.529Z,97
2019-01-12T19:33:43.079Z,97
2019-01-12T19:39:09.590Z,97
2019-01-12T19:44:36.199Z,97
2019-01-12T19:50:02.735Z,97
2019-01-12T19:55:29.300Z,97
2019-01-12T20:00:55.878Z,97
2019-01-12T20:06:23.423Z,97
2019-01-12T20:11:50.099Z,97
2019-01-12T20:17:17.600Z,97
2019-01-12T20:22:45.148Z,97
2019-01-12T20:28:12.769Z,97
2019-01-12T20:33:40.378Z,97
2019-01-12T20:39:06.837Z,97
2019-01-12T20:44:34.340Z,97
2019-01-12T20:50:01.112Z,97
2019-01-12T20:55:28.447Z,97
2019-01-12T21:00:54.957Z,97
2019-01-12T21:06:21.537Z,97
2019-01-12T21:11:48.049Z,97
2019-01-12T21:17:14.581Z,97
2019-01-12T21:22:41.173Z,97
2019-01-12T21:28:07.680Z,97
2019-01-12T21:33:35.213Z,97
2019-01-12T21:39:01.817Z,97
2019-01-12T21:44:29.300Z,97
2019-01-12T21:49:56.835Z,97
2019-01-12T21:55:24.394Z,97
2019-01-12T22:00:51.941Z,97
2019-01-12T22:06:19.511Z,97
2019-01-12T22:11:46.052Z,97
2019-01-12T22:17:12.617Z,97
2019-01-12T22:22:40.618Z,97
2019-01-12T22:28:06.858Z,97
2019-01-12T22:33:33.299Z,97
2019-01-12T22:39:00.920Z,97
2019-01-12T22:44:27.415Z,97
2019-01-12T22:49:54.974Z,97
2019-01-12T22:55:22.504Z,97
2019-01-12T23:00:49.092Z,97
2019-01-12T23:06:15.658Z,97
2019-01-12T23:11:43.256Z,97
2019-01-12T23:22:38.405Z,97
2019-01-12T23:28:04.977Z,97
2019-01-12T23:33:32.602Z,97
2019-01-12T23:39:00.245Z,97
2019-01-12T23:44:27.009Z,97
2019-01-12T23:49:53.251Z,97
2019-01-12T23:55:19.832Z,97
